sensor_id;sensor_type;location;lat;lon;timestamp;temperature;humidity
11423;DHT22;5768;51.476;7.210;2023-12-20T00:02:32;8.70;99.90
11423;DHT22;5768;51.476;7.210;2023-12-20T00:07:35;8.70;99.90
11423;DHT22;5768;51.476;7.210;2023-12-20T00:12:39;8.80;99.90
11423;DHT22;5768;51.476;7.210;2023-12-20T00:17:41;8.80;99.90
11423;DHT22;5768;51.476;7.210;2023-12-20T00:22:43;8.70;99.90
11423;DHT22;5768;51.476;7.210;2023-12-20T00:27:47;8.70;99.90
11423;DHT22;5768;51.476;7.210;2023-12-20T00:32:49;8.60;99.90
11423;DHT22;5768;51.476;7.210;2023-12-20T00:37:51;8.70;99.90
11423;DHT22;5768;51.476;7.210;2023-12-20T00:42:55;8.70;99.90
11423;DHT22;5768;51.476;7.210;2023-12-20T00:47:57;8.60;99.90
11423;DHT22;5768;51.476;7.210;2023-12-20T00:52:59;8.60;99.90
11423;DHT22;5768;51.476;7.210;2023-12-20T00:58:03;8.40;99.90
11423;DHT22;5768;51.476;7.210;2023-12-20T01:03:05;8.40;99.90
11423;DHT22;5768;51.476;7.210;2023-12-20T01:08:08;8.40;99.90
11423;DHT22;5768;51.476;7.210;2023-12-20T01:13:12;8.30;99.90
11423;DHT22;5768;51.476;7.210;2023-12-20T01:18:16;8.30;99.90
11423;DHT22;5768;51.476;7.210;2023-12-20T01:23:19;8.30;99.90
11423;DHT22;5768;51.476;7.210;2023-12-20T01:28:23;8.30;99.90
11423;DHT22;5768;51.476;7.210;2023-12-20T01:33:25;8.40;99.90
11423;DHT22;5768;51.476;7.210;2023-12-20T01:38:27;8.30;99.90
11423;DHT22;5768;51.476;7.210;2023-12-20T01:43:31;8.10;99.90
11423;DHT22;5768;51.476;7.210;2023-12-20T01:48:33;8.10;99.90
11423;DHT22;5768;51.476;7.210;2023-12-20T01:53:35;8.00;99.90
11423;DHT22;5768;51.476;7.210;2023-12-20T01:58:44;8.00;99.90
11423;DHT22;5768;51.476;7.210;2023-12-20T02:03:48;8.10;99.90
11423;DHT22;5768;51.476;7.210;2023-12-20T02:08:51;8.00;99.90
11423;DHT22;5768;51.476;7.210;2023-12-20T02:13:55;7.80;99.90
11423;DHT22;5768;51.476;7.210;2023-12-20T02:18:57;7.70;99.90
11423;DHT22;5768;51.476;7.210;2023-12-20T02:24:01;7.50;99.90
11423;DHT22;5768;51.476;7.210;2023-12-20T02:29:03;7.50;99.90
11423;DHT22;5768;51.476;7.210;2023-12-20T02:34:06;7.50;99.90
11423;DHT22;5768;51.476;7.210;2023-12-20T02:39:09;7.70;99.90
11423;DHT22;5768;51.476;7.210;2023-12-20T02:44:11;7.80;99.90
11423;DHT22;5768;51.476;7.210;2023-12-20T02:49:14;7.80;99.90
11423;DHT22;5768;51.476;7.210;2023-12-20T02:54:18;7.80;99.90
11423;DHT22;5768;51.476;7.210;2023-12-20T02:59:20;7.90;99.90
11423;DHT22;5768;51.476;7.210;2023-12-20T03:04:22;7.90;99.90
11423;DHT22;5768;51.476;7.210;2023-12-20T03:09:26;7.80;99.90
11423;DHT22;5768;51.476;7.210;2023-12-20T03:14:28;7.70;99.90
11423;DHT22;5768;51.476;7.210;2023-12-20T03:19:31;7.80;99.90
11423;DHT22;5768;51.476;7.210;2023-12-20T03:24:35;7.90;99.90
11423;DHT22;5768;51.476;7.210;2023-12-20T03:29:37;7.80;99.90
11423;DHT22;5768;51.476;7.210;2023-12-20T03:34:39;7.70;99.90
11423;DHT22;5768;51.476;7.210;2023-12-20T03:39:42;7.60;99.90
11423;DHT22;5768;51.476;7.210;2023-12-20T03:44:47;7.40;99.90
11423;DHT22;5768;51.476;7.210;2023-12-20T03:49:49;7.50;99.90
11423;DHT22;5768;51.476;7.210;2023-12-20T03:54:53;7.30;99.90
11423;DHT22;5768;51.476;7.210;2023-12-20T03:59:59;7.40;99.90
11423;DHT22;5768;51.476;7.210;2023-12-20T04:05:02;7.10;99.90
11423;DHT22;5768;51.476;7.210;2023-12-20T04:10:08;7.30;99.90
11423;DHT22;5768;51.476;7.210;2023-12-20T04:15:10;7.20;99.90
11423;DHT22;5768;51.476;7.210;2023-12-20T04:20:12;7.10;99.90
11423;DHT22;5768;51.476;7.210;2023-12-20T04:25:16;7.10;99.90
11423;DHT22;5768;51.476;7.210;2023-12-20T04:30:18;7.00;99.90
11423;DHT22;5768;51.476;7.210;2023-12-20T04:35:20;6.90;99.90
11423;DHT22;5768;51.476;7.210;2023-12-20T04:40:24;7.00;99.90
11423;DHT22;5768;51.476;7.210;2023-12-20T04:45:27;7.00;99.90
11423;DHT22;5768;51.476;7.210;2023-12-20T04:50:29;7.00;99.90
11423;DHT22;5768;51.476;7.210;2023-12-20T04:55:32;7.10;99.90
11423;DHT22;5768;51.476;7.210;2023-12-20T05:00:35;7.00;99.90
11423;DHT22;5768;51.476;7.210;2023-12-20T05:05:37;7.10;99.90
11423;DHT22;5768;51.476;7.210;2023-12-20T05:10:41;7.10;99.90
11423;DHT22;5768;51.476;7.210;2023-12-20T05:15:43;7.00;99.90
11423;DHT22;5768;51.476;7.210;2023-12-20T05:20:45;7.00;99.90
11423;DHT22;5768;51.476;7.210;2023-12-20T05:25:49;7.00;99.90
11423;DHT22;5768;51.476;7.210;2023-12-20T05:30:57;7.00;99.90
11423;DHT22;5768;51.476;7.210;2023-12-20T05:35:59;6.90;99.90
11423;DHT22;5768;51.476;7.210;2023-12-20T05:41:03;6.90;99.90
11423;DHT22;5768;51.476;7.210;2023-12-20T05:46:05;6.90;99.90
11423;DHT22;5768;51.476;7.210;2023-12-20T05:51:10;6.80;99.90
11423;DHT22;5768;51.476;7.210;2023-12-20T05:56:14;6.80;99.90
11423;DHT22;5768;51.476;7.210;2023-12-20T06:01:16;7.00;99.90
11423;DHT22;5768;51.476;7.210;2023-12-20T06:06:21;7.00;99.90
11423;DHT22;5768;51.476;7.210;2023-12-20T06:11:25;7.00;99.90
11423;DHT22;5768;51.476;7.210;2023-12-20T06:16:28;7.10;99.90
11423;DHT22;5768;51.476;7.210;2023-12-20T06:21:31;7.00;99.90
11423;DHT22;5768;51.476;7.210;2023-12-20T06:26:35;7.10;99.90
11423;DHT22;5768;51.476;7.210;2023-12-20T06:31:37;7.20;99.90
11423;DHT22;5768;51.476;7.210;2023-12-20T06:36:42;7.00;99.90
11423;DHT22;5768;51.476;7.210;2023-12-20T06:41:45;7.00;99.90
11423;DHT22;5768;51.476;7.210;2023-12-20T06:46:47;7.00;99.90
11423;DHT22;5768;51.476;7.210;2023-12-20T06:51:50;7.20;99.90
11423;DHT22;5768;51.476;7.210;2023-12-20T06:56:53;7.10;99.90
11423;DHT22;5768;51.476;7.210;2023-12-20T07:01:56;7.00;99.90
11423;DHT22;5768;51.476;7.210;2023-12-20T07:06:58;7.20;99.90
11423;DHT22;5768;51.476;7.210;2023-12-20T07:12:03;6.90;99.90
11423;DHT22;5768;51.476;7.210;2023-12-20T07:17:05;7.00;99.90
11423;DHT22;5768;51.476;7.210;2023-12-20T07:22:12;7.00;99.90
11423;DHT22;5768;51.476;7.210;2023-12-20T07:27:15;7.10;99.90
11423;DHT22;5768;51.476;7.210;2023-12-20T07:32:18;7.00;99.90
11423;DHT22;5768;51.476;7.210;2023-12-20T07:37:21;7.10;99.90
11423;DHT22;5768;51.476;7.210;2023-12-20T07:42:26;7.00;99.90
11423;DHT22;5768;51.476;7.210;2023-12-20T07:47:28;7.10;99.90
11423;DHT22;5768;51.476;7.210;2023-12-20T07:52:30;7.20;99.90
11423;DHT22;5768;51.476;7.210;2023-12-20T07:57:34;7.30;99.90
11423;DHT22;5768;51.476;7.210;2023-12-20T08:02:36;7.20;99.90
11423;DHT22;5768;51.476;7.210;2023-12-20T08:07:38;7.20;99.90
11423;DHT22;5768;51.476;7.210;2023-12-20T08:12:42;7.20;99.90
11423;DHT22;5768;51.476;7.210;2023-12-20T08:17:44;7.30;99.90
11423;DHT22;5768;51.476;7.210;2023-12-20T08:22:46;7.30;99.90
11423;DHT22;5768;51.476;7.210;2023-12-20T08:27:50;7.40;99.90
11423;DHT22;5768;51.476;7.210;2023-12-20T08:32:52;7.40;99.90
11423;DHT22;5768;51.476;7.210;2023-12-20T08:37:54;7.40;99.90
11423;DHT22;5768;51.476;7.210;2023-12-20T08:42:58;7.40;99.90
11423;DHT22;5768;51.476;7.210;2023-12-20T08:48:00;7.50;99.90
11423;DHT22;5768;51.476;7.210;2023-12-20T08:53:02;7.50;99.90
11423;DHT22;5768;51.476;7.210;2023-12-20T08:58:06;7.50;99.90
11423;DHT22;5768;51.476;7.210;2023-12-20T09:03:08;7.60;99.90
11423;DHT22;5768;51.476;7.210;2023-12-20T09:08:10;7.40;99.90
11423;DHT22;5768;51.476;7.210;2023-12-20T09:13:14;7.50;99.90
11423;DHT22;5768;51.476;7.210;2023-12-20T09:18:16;7.50;99.90
11423;DHT22;5768;51.476;7.210;2023-12-20T09:23:19;7.60;99.90
11423;DHT22;5768;51.476;7.210;2023-12-20T09:28:22;7.50;99.90
11423;DHT22;5768;51.476;7.210;2023-12-20T09:33:24;7.60;99.90
11423;DHT22;5768;51.476;7.210;2023-12-20T09:38:26;7.70;99.90
11423;DHT22;5768;51.476;7.210;2023-12-20T09:43:30;7.70;99.90
11423;DHT22;5768;51.476;7.210;2023-12-20T09:48:36;7.60;99.90
11423;DHT22;5768;51.476;7.210;2023-12-20T09:53:40;7.80;99.90
11423;DHT22;5768;51.476;7.210;2023-12-20T09:58:45;7.90;99.90
11423;DHT22;5768;51.476;7.210;2023-12-20T10:03:47;7.90;99.90
11423;DHT22;5768;51.476;7.210;2023-12-20T10:08:50;7.80;99.90
11423;DHT22;5768;51.476;7.210;2023-12-20T10:13:59;7.70;99.90
11423;DHT22;5768;51.476;7.210;2023-12-20T10:19:02;8.00;99.90
11423;DHT22;5768;51.476;7.210;2023-12-20T10:24:05;8.00;99.90
11423;DHT22;5768;51.476;7.210;2023-12-20T10:29:10;8.00;99.90
11423;DHT22;5768;51.476;7.210;2023-12-20T10:34:12;8.00;99.90
11423;DHT22;5768;51.476;7.210;2023-12-20T10:39:14;8.00;99.90
11423;DHT22;5768;51.476;7.210;2023-12-20T10:44:19;8.00;99.90
11423;DHT22;5768;51.476;7.210;2023-12-20T10:49:21;8.10;99.90
11423;DHT22;5768;51.476;7.210;2023-12-20T10:54:24;8.10;99.90
11423;DHT22;5768;51.476;7.210;2023-12-20T10:59:29;8.00;99.90
11423;DHT22;5768;51.476;7.210;2023-12-20T11:04:39;8.00;99.90
11423;DHT22;5768;51.476;7.210;2023-12-20T11:09:56;8.10;99.90
11423;DHT22;5768;51.476;7.210;2023-12-20T11:15:04;7.80;99.90
11423;DHT22;5768;51.476;7.210;2023-12-20T11:20:08;8.10;99.90
11423;DHT22;5768;51.476;7.210;2023-12-20T11:25:16;7.90;99.90
11423;DHT22;5768;51.476;7.210;2023-12-20T11:30:21;8.00;99.90
11423;DHT22;5768;51.476;7.210;2023-12-20T11:35:23;8.20;99.90
11423;DHT22;5768;51.476;7.210;2023-12-20T11:40:26;8.10;99.90
11423;DHT22;5768;51.476;7.210;2023-12-20T11:45:30;8.20;99.90
11423;DHT22;5768;51.476;7.210;2023-12-20T11:50:35;8.20;99.90
11423;DHT22;5768;51.476;7.210;2023-12-20T11:55:37;8.10;99.90
11423;DHT22;5768;51.476;7.210;2023-12-20T12:00:41;8.20;99.90
11423;DHT22;5768;51.476;7.210;2023-12-20T12:05:43;8.20;99.90
11423;DHT22;5768;51.476;7.210;2023-12-20T12:10:48;8.20;99.90
11423;DHT22;5768;51.476;7.210;2023-12-20T12:15:53;7.90;99.90
11423;DHT22;5768;51.476;7.210;2023-12-20T12:21:00;8.00;99.90
11423;DHT22;5768;51.476;7.210;2023-12-20T12:26:04;7.80;99.90
11423;DHT22;5768;51.476;7.210;2023-12-20T12:36:10;8.00;99.90
11423;DHT22;5768;51.476;7.210;2023-12-20T12:41:16;8.10;99.90
11423;DHT22;5768;51.476;7.210;2023-12-20T12:46:19;8.00;99.90
11423;DHT22;5768;51.476;7.210;2023-12-20T12:51:23;8.00;99.90
11423;DHT22;5768;51.476;7.210;2023-12-20T12:56:25;7.70;99.90
11423;DHT22;5768;51.476;7.210;2023-12-20T13:01:28;8.10;99.90
11423;DHT22;5768;51.476;7.210;2023-12-20T13:06:31;8.20;99.90
11423;DHT22;5768;51.476;7.210;2023-12-20T13:11:33;8.10;99.90
11423;DHT22;5768;51.476;7.210;2023-12-20T13:16:35;8.10;99.90
11423;DHT22;5768;51.476;7.210;2023-12-20T13:21:39;8.20;99.90
11423;DHT22;5768;51.476;7.210;2023-12-20T13:26:41;8.40;99.90
11423;DHT22;5768;51.476;7.210;2023-12-20T13:31:43;8.30;99.90
11423;DHT22;5768;51.476;7.210;2023-12-20T13:36:47;8.10;99.90
11423;DHT22;5768;51.476;7.210;2023-12-20T13:41:51;8.10;99.90
11423;DHT22;5768;51.476;7.210;2023-12-20T13:46:53;7.90;99.90
11423;DHT22;5768;51.476;7.210;2023-12-20T13:51:57;7.80;99.90
11423;DHT22;5768;51.476;7.210;2023-12-20T13:56:59;7.80;99.90
11423;DHT22;5768;51.476;7.210;2023-12-20T14:02:01;7.90;99.90
11423;DHT22;5768;51.476;7.210;2023-12-20T14:07:06;7.60;99.90
11423;DHT22;5768;51.476;7.210;2023-12-20T14:12:08;7.50;99.90
11423;DHT22;5768;51.476;7.210;2023-12-20T14:17:10;7.50;99.90
11423;DHT22;5768;51.476;7.210;2023-12-20T14:22:14;7.50;99.90
11423;DHT22;5768;51.476;7.210;2023-12-20T14:27:17;7.50;99.90
11423;DHT22;5768;51.476;7.210;2023-12-20T14:32:24;7.70;99.90
11423;DHT22;5768;51.476;7.210;2023-12-20T14:37:28;7.70;99.90
11423;DHT22;5768;51.476;7.210;2023-12-20T14:42:30;7.70;99.90
11423;DHT22;5768;51.476;7.210;2023-12-20T14:47:33;7.80;99.90
11423;DHT22;5768;51.476;7.210;2023-12-20T14:52:37;7.80;99.90
11423;DHT22;5768;51.476;7.210;2023-12-20T14:57:39;7.70;99.90
11423;DHT22;5768;51.476;7.210;2023-12-20T15:02:42;7.80;99.90
11423;DHT22;5768;51.476;7.210;2023-12-20T15:07:45;7.70;99.90
11423;DHT22;5768;51.476;7.210;2023-12-20T15:12:48;7.70;99.90
11423;DHT22;5768;51.476;7.210;2023-12-20T15:17:50;7.80;99.90
11423;DHT22;5768;51.476;7.210;2023-12-20T15:22:54;7.80;99.90
11423;DHT22;5768;51.476;7.210;2023-12-20T15:27:59;7.90;99.90
11423;DHT22;5768;51.476;7.210;2023-12-20T15:33:03;7.90;99.90
11423;DHT22;5768;51.476;7.210;2023-12-20T15:38:07;7.90;99.90
11423;DHT22;5768;51.476;7.210;2023-12-20T15:43:09;7.80;99.90
11423;DHT22;5768;51.476;7.210;2023-12-20T15:48:12;8.00;99.90
11423;DHT22;5768;51.476;7.210;2023-12-20T15:53:20;7.80;99.90
11423;DHT22;5768;51.476;7.210;2023-12-20T15:58:22;7.80;99.90
11423;DHT22;5768;51.476;7.210;2023-12-20T16:03:24;7.90;99.90
11423;DHT22;5768;51.476;7.210;2023-12-20T16:08:28;8.00;99.90
11423;DHT22;5768;51.476;7.210;2023-12-20T16:13:31;8.10;99.90
11423;DHT22;5768;51.476;7.210;2023-12-20T16:18:34;8.00;99.90
11423;DHT22;5768;51.476;7.210;2023-12-20T16:23:38;8.10;99.90
11423;DHT22;5768;51.476;7.210;2023-12-20T16:28:40;8.00;99.90
11423;DHT22;5768;51.476;7.210;2023-12-20T16:33:42;8.10;99.90
11423;DHT22;5768;51.476;7.210;2023-12-20T16:38:46;8.10;99.90
11423;DHT22;5768;51.476;7.210;2023-12-20T16:43:48;8.10;99.90
11423;DHT22;5768;51.476;7.210;2023-12-20T16:48:50;8.30;99.90
11423;DHT22;5768;51.476;7.210;2023-12-20T16:53:54;8.20;99.90
11423;DHT22;5768;51.476;7.210;2023-12-20T16:58:56;8.20;99.90
11423;DHT22;5768;51.476;7.210;2023-12-20T17:03:58;8.10;99.90
11423;DHT22;5768;51.476;7.210;2023-12-20T17:09:06;7.90;99.90
11423;DHT22;5768;51.476;7.210;2023-12-20T17:14:09;7.90;99.90
11423;DHT22;5768;51.476;7.210;2023-12-20T17:19:12;7.80;99.90
11423;DHT22;5768;51.476;7.210;2023-12-20T17:24:15;7.70;99.90
11423;DHT22;5768;51.476;7.210;2023-12-20T17:29:17;7.90;99.90
11423;DHT22;5768;51.476;7.210;2023-12-20T17:34:20;7.90;99.90
11423;DHT22;5768;51.476;7.210;2023-12-20T17:39:24;7.80;99.90
11423;DHT22;5768;51.476;7.210;2023-12-20T17:44:26;7.90;99.90
11423;DHT22;5768;51.476;7.210;2023-12-20T17:49:30;7.80;99.90
11423;DHT22;5768;51.476;7.210;2023-12-20T17:54:33;7.70;99.90
11423;DHT22;5768;51.476;7.210;2023-12-20T17:59:35;7.70;99.90
11423;DHT22;5768;51.476;7.210;2023-12-20T18:04:39;7.80;99.90
11423;DHT22;5768;51.476;7.210;2023-12-20T18:09:42;7.80;99.90
11423;DHT22;5768;51.476;7.210;2023-12-20T18:14:44;7.90;99.90
11423;DHT22;5768;51.476;7.210;2023-12-20T18:19:49;7.90;99.90
11423;DHT22;5768;51.476;7.210;2023-12-20T18:24:52;7.90;99.90
11423;DHT22;5768;51.476;7.210;2023-12-20T18:29:56;7.90;99.90
11423;DHT22;5768;51.476;7.210;2023-12-20T18:34:59;8.10;99.90
11423;DHT22;5768;51.476;7.210;2023-12-20T18:40:04;8.00;99.90
11423;DHT22;5768;51.476;7.210;2023-12-20T18:45:09;8.10;99.90
11423;DHT22;5768;51.476;7.210;2023-12-20T18:50:11;8.10;99.90
11423;DHT22;5768;51.476;7.210;2023-12-20T18:55:15;8.10;99.90
11423;DHT22;5768;51.476;7.210;2023-12-20T19:00:20;8.20;99.90
11423;DHT22;5768;51.476;7.210;2023-12-20T19:05:22;8.10;99.90
11423;DHT22;5768;51.476;7.210;2023-12-20T19:10:29;8.20;99.90
11423;DHT22;5768;51.476;7.210;2023-12-20T19:15:31;8.10;99.90
11423;DHT22;5768;51.476;7.210;2023-12-20T19:20:33;8.10;99.90
11423;DHT22;5768;51.476;7.210;2023-12-20T19:25:37;8.10;99.90
11423;DHT22;5768;51.476;7.210;2023-12-20T19:30:39;8.00;99.90
11423;DHT22;5768;51.476;7.210;2023-12-20T19:35:41;8.00;99.90
11423;DHT22;5768;51.476;7.210;2023-12-20T19:40:45;8.00;99.90
11423;DHT22;5768;51.476;7.210;2023-12-20T19:45:49;8.10;99.90
11423;DHT22;5768;51.476;7.210;2023-12-20T19:50:51;8.20;99.90
11423;DHT22;5768;51.476;7.210;2023-12-20T19:55:55;8.10;99.90
11423;DHT22;5768;51.476;7.210;2023-12-20T20:00:57;8.20;99.90
11423;DHT22;5768;51.476;7.210;2023-12-20T20:05:59;8.30;99.90
11423;DHT22;5768;51.476;7.210;2023-12-20T20:11:03;8.20;99.90
11423;DHT22;5768;51.476;7.210;2023-12-20T20:16:05;8.10;99.90
11423;DHT22;5768;51.476;7.210;2023-12-20T20:21:08;8.00;99.90
11423;DHT22;5768;51.476;7.210;2023-12-20T20:26:11;8.00;99.90
11423;DHT22;5768;51.476;7.210;2023-12-20T20:31:14;8.00;99.90
11423;DHT22;5768;51.476;7.210;2023-12-20T20:36:16;8.10;99.90
11423;DHT22;5768;51.476;7.210;2023-12-20T20:41:20;8.00;99.90
11423;DHT22;5768;51.476;7.210;2023-12-20T20:46:23;8.00;99.90
11423;DHT22;5768;51.476;7.210;2023-12-20T20:51:27;8.00;99.90
11423;DHT22;5768;51.476;7.210;2023-12-20T20:56:30;8.00;99.90
11423;DHT22;5768;51.476;7.210;2023-12-20T21:01:33;8.00;99.90
11423;DHT22;5768;51.476;7.210;2023-12-20T21:06:35;8.10;99.90
11423;DHT22;5768;51.476;7.210;2023-12-20T21:11:39;8.20;99.90
11423;DHT22;5768;51.476;7.210;2023-12-20T21:16:41;8.20;99.90
11423;DHT22;5768;51.476;7.210;2023-12-20T21:21:43;8.20;99.90
11423;DHT22;5768;51.476;7.210;2023-12-20T21:26:48;8.20;99.90
11423;DHT22;5768;51.476;7.210;2023-12-20T21:31:50;8.20;99.90
11423;DHT22;5768;51.476;7.210;2023-12-20T21:36:53;8.10;99.90
11423;DHT22;5768;51.476;7.210;2023-12-20T21:41:56;8.20;99.90
11423;DHT22;5768;51.476;7.210;2023-12-20T21:46:58;8.20;99.90
11423;DHT22;5768;51.476;7.210;2023-12-20T21:52:01;8.20;99.90
11423;DHT22;5768;51.476;7.210;2023-12-20T21:57:04;8.20;99.90
11423;DHT22;5768;51.476;7.210;2023-12-20T22:02:06;8.20;99.90
11423;DHT22;5768;51.476;7.210;2023-12-20T22:07:09;8.30;99.90
11423;DHT22;5768;51.476;7.210;2023-12-20T22:12:12;8.20;99.90
11423;DHT22;5768;51.476;7.210;2023-12-20T22:17:16;8.20;99.90
11423;DHT22;5768;51.476;7.210;2023-12-20T22:22:18;8.20;99.90
11423;DHT22;5768;51.476;7.210;2023-12-20T22:27:23;8.20;99.90
11423;DHT22;5768;51.476;7.210;2023-12-20T22:32:26;8.40;99.90
11423;DHT22;5768;51.476;7.210;2023-12-20T22:37:29;8.40;99.90
11423;DHT22;5768;51.476;7.210;2023-12-20T22:42:32;8.40;99.90
11423;DHT22;5768;51.476;7.210;2023-12-20T22:47:34;8.40;99.90
11423;DHT22;5768;51.476;7.210;2023-12-20T22:52:37;8.40;99.90
11423;DHT22;5768;51.476;7.210;2023-12-20T22:57:40;8.40;99.90
11423;DHT22;5768;51.476;7.210;2023-12-20T23:02:42;8.40;99.90
11423;DHT22;5768;51.476;7.210;2023-12-20T23:07:45;8.50;99.90
11423;DHT22;5768;51.476;7.210;2023-12-20T23:12:49;8.50;99.90
11423;DHT22;5768;51.476;7.210;2023-12-20T23:17:52;8.50;99.90
11423;DHT22;5768;51.476;7.210;2023-12-20T23:22:56;8.50;99.90
11423;DHT22;5768;51.476;7.210;2023-12-20T23:28:00;8.50;99.90
11423;DHT22;5768;51.476;7.210;2023-12-20T23:33:03;8.60;99.90
11423;DHT22;5768;51.476;7.210;2023-12-20T23:38:06;8.50;99.90
11423;DHT22;5768;51.476;7.210;2023-12-20T23:43:10;8.60;99.90
11423;DHT22;5768;51.476;7.210;2023-12-20T23:48:14;8.50;99.90
11423;DHT22;5768;51.476;7.210;2023-12-20T23:53:16;8.50;99.90
11423;DHT22;5768;51.476;7.210;2023-12-20T23:58:19;8.60;99.90
